Time;durP1;ratioP1;P1;durP2;ratioP2;P2;SDS_P1;SDS_P2;PMS_P1;PMS_P2;Temp;Humidity;BMP_temperature;BMP_pressure;BME280_temperature;BME280_humidity;BME280_pressure;Samples;Min_cycle;Max_cycle;Signal;HPM_P1;HPM_P2
2023/01/04 00:01:06;;;;;;;60.38;9.02;;;;;;;;;;4957067;28;20113;-39
2023/01/04 00:03:33;;;;;;;38.17;6.80;;;;;;;;;;4957357;28;20062;-40
2023/01/04 00:06:01;;;;;;;26.02;6.45;;;;;;;;;;4955224;28;20122;-39
2023/01/04 00:08:28;;;;;;;52.83;9.68;;;;;;;;;;4957099;28;20043;-39
2023/01/04 00:11:01;;;;;;;27.98;6.93;;;;;;;;;;4959163;28;20035;-39
2023/01/04 00:13:28;;;;;;;59.80;9.65;;;;;;;;;;4961812;28;20047;-39
2023/01/04 00:15:55;;;;;;;33.97;7.32;;;;;;;;;;4956115;28;20410;-41
2023/01/04 00:18:26;;;;;;;42.50;7.68;;;;;;;;;;4954936;28;20043;-39
2023/01/04 00:20:52;;;;;;;41.10;8.45;;;;;;;;;;4954021;28;20065;-39
2023/01/04 00:23:19;;;;;;;35.10;7.32;;;;;;;;;;4958328;28;20409;-39
2023/01/04 00:25:45;;;;;;;33.28;6.57;;;;;;;;;;4958339;28;20517;-40
2023/01/04 00:28:12;;;;;;;38.83;7.35;;;;;;;;;;4957877;28;20158;-39
2023/01/04 00:30:38;;;;;;;37.15;7.43;;;;;;;;;;4970130;28;20058;-39
2023/01/04 00:33:05;;;;;;;26.92;6.45;;;;;;;;;;4955469;28;20090;-39
2023/01/04 00:35:32;;;;;;;42.97;7.28;;;;;;;;;;4960184;28;20035;-39
2023/01/04 00:38:11;;;;;;;42.33;8.35;;;;;;;;;;4958136;28;20445;-39
2023/01/04 00:40:38;;;;;;;36.45;7.80;;;;;;;;;;4957890;28;20039;-39
2023/01/04 00:43:04;;;;;;;54.08;9.02;;;;;;;;;;4956189;28;20165;-39
2023/01/04 00:45:31;;;;;;;38.28;7.63;;;;;;;;;;4955677;28;20254;-40
2023/01/04 00:47:57;;;;;;;30.67;6.82;;;;;;;;;;4955214;28;20047;-39
2023/01/04 00:50:23;;;;;;;49.63;7.78;;;;;;;;;;4957870;28;20035;-39
2023/01/04 00:52:50;;;;;;;26.73;6.15;;;;;;;;;;4957897;28;20059;-39
2023/01/04 00:55:16;;;;;;;34.58;7.85;;;;;;;;;;4957344;28;20035;-39
2023/01/04 00:57:43;;;;;;;44.17;7.28;;;;;;;;;;4952039;28;20055;-39
2023/01/04 01:00:10;;;;;;;25.35;5.72;;;;;;;;;;4953495;28;20039;-39
2023/01/04 01:02:36;;;;;;;51.42;8.55;;;;;;;;;;4955948;28;20075;-38
2023/01/04 01:05:03;;;;;;;42.60;7.95;;;;;;;;;;4957830;28;20047;-40
2023/01/04 01:07:30;;;;;;;44.25;8.02;;;;;;;;;;4957153;28;20410;-40
2023/01/04 01:09:56;;;;;;;32.72;7.25;;;;;;;;;;4956042;28;20051;-39
2023/01/04 01:12:23;;;;;;;44.97;7.88;;;;;;;;;;4956573;28;20042;-39
2023/01/04 01:14:49;;;;;;;35.97;7.15;;;;;;;;;;4954097;28;20043;-39
2023/01/04 01:17:20;;;;;;;44.50;8.02;;;;;;;;;;4958617;28;20104;-39
2023/01/04 01:19:46;;;;;;;49.42;9.15;;;;;;;;;;4957402;28;20050;-39
2023/01/04 01:22:12;;;;;;;30.70;7.32;;;;;;;;;;4956648;28;20472;-39
2023/01/04 01:24:39;;;;;;;42.58;8.20;;;;;;;;;;4954432;28;20047;-38
2023/01/04 01:27:05;;;;;;;54.75;10.35;;;;;;;;;;4955628;28;20070;-39
2023/01/04 01:29:32;;;;;;;39.08;8.27;;;;;;;;;;4956123;28;20122;-39
2023/01/04 01:31:58;;;;;;;37.50;7.82;;;;;;;;;;4957906;28;20654;-39
2023/01/04 01:34:25;;;;;;;47.75;8.90;;;;;;;;;;4955505;28;20038;-39
2023/01/04 01:36:52;;;;;;;32.67;7.97;;;;;;;;;;4954701;28;20046;-39
2023/01/04 01:39:18;;;;;;;45.03;8.77;;;;;;;;;;4954083;28;20054;-39
2023/01/04 01:41:45;;;;;;;31.95;8.40;;;;;;;;;;4954680;28;20043;-39
2023/01/04 01:44:11;;;;;;;24.70;7.60;;;;;;;;;;4957418;28;20047;-39
2023/01/04 01:46:42;;;;;;;54.15;9.82;;;;;;;;;;4956119;28;20053;-39
2023/01/04 01:49:21;;;;;;;60.45;11.35;;;;;;;;;;4959028;28;20043;-39
2023/01/04 01:51:47;;;;;;;29.58;8.30;;;;;;;;;;4954713;28;20039;-39
2023/01/04 01:54:20;;;;;;;34.40;9.13;;;;;;;;;;4953871;28;20039;-40
2023/01/04 01:56:49;;;;;;;26.30;8.05;;;;;;;;;;4955049;28;20475;-41
2023/01/04 01:59:16;;;;;;;32.63;8.00;;;;;;;;;;4957712;28;20051;-39
2023/01/04 02:01:43;;;;;;;30.05;7.90;;;;;;;;;;4957725;28;20461;-40
2023/01/04 02:04:10;;;;;;;48.97;9.75;;;;;;;;;;4955879;28;20421;-39
2023/01/04 02:06:39;;;;;;;36.15;8.68;;;;;;;;;;4954469;28;20151;-40
2023/01/04 02:09:05;;;;;;;40.72;10.38;;;;;;;;;;4955462;28;20114;-39
2023/01/04 02:11:32;;;;;;;39.65;10.27;;;;;;;;;;4957355;28;20046;-40
2023/01/04 02:16:47;;;;;;;42.45;10.18;;;;;;;;;;4963952;28;20405;-40
2023/01/04 02:19:17;;;;;;;38.30;10.10;;;;;;;;;;4958880;28;20069;-40
2023/01/04 02:22:02;;;;;;;32.35;9.90;;;;;;;;;;4958524;28;20047;-40
2023/01/04 02:24:34;;;;;;;52.58;10.70;;;;;;;;;;4962611;28;20141;-40
2023/01/04 02:27:06;;;;;;;44.20;11.32;;;;;;;;;;4956432;28;20043;-40
2023/01/04 02:29:39;;;;;;;40.85;9.68;;;;;;;;;;4959113;28;20051;-39
2023/01/04 02:32:16;;;;;;;48.50;11.02;;;;;;;;;;4960769;28;20543;-39
2023/01/04 02:34:56;;;;;;;51.78;12.68;;;;;;;;;;4957824;28;20043;-39
2023/01/04 02:37:24;;;;;;;44.28;10.57;;;;;;;;;;4962627;28;20126;-40
2023/01/04 02:40:17;;;;;;;42.22;10.55;;;;;;;;;;4958452;28;20039;-40
2023/01/04 02:45:51;;;;;;;54.05;11.52;;;;;;;;;;4957636;28;20051;-40
2023/01/04 02:51:02;;;;;;;39.50;11.15;;;;;;;;;;4958713;28;20580;-40
2023/01/04 02:53:29;;;;;;;97.55;15.15;;;;;;;;;;4959288;28;20054;-40
2023/01/04 02:56:01;;;;;;;59.42;12.18;;;;;;;;;;4958589;28;20032;-39
2023/01/04 02:58:46;;;;;;;63.65;13.07;;;;;;;;;;4963467;28;20057;-39
2023/01/04 03:06:58;;;;;;;50.63;12.75;;;;;;;;;;4958924;28;20090;-40
2023/01/04 03:09:27;;;;;;;57.22;13.30;;;;;;;;;;4958660;28;20472;-40
2023/01/04 03:14:52;;;;;;;61.15;14.95;;;;;;;;;;4955480;28;20045;-41
2023/01/04 03:17:20;;;;;;;41.80;13.00;;;;;;;;;;4960140;28;20047;-39
2023/01/04 03:19:56;;;;;;;56.33;14.05;;;;;;;;;;4959420;28;20051;-39
2023/01/04 03:36:46;;;;;;;84.00;17.50;;;;;;;;;;4930607;29;20057;-40
2023/01/04 03:50:49;;;;;;;56.40;17.20;;;;;;;;;;4929809;29;20506;-39
2023/01/04 03:53:16;;;;;;;81.20;18.90;;;;;;;;;;4902185;29;20375;-40
2023/01/04 03:55:43;;;;;;;48.65;15.70;;;;;;;;;;4929908;29;20078;-40
2023/01/04 03:58:10;;;;;;;92.93;18.60;;;;;;;;;;4930030;29;20055;-40
2023/01/04 04:00:37;;;;;;;85.15;17.98;;;;;;;;;;4927993;29;20425;-40
2023/01/04 04:03:11;;;;;;;62.63;16.10;;;;;;;;;;4929980;29;20134;-40
2023/01/04 04:08:27;;;;;;;89.72;18.20;;;;;;;;;;4929174;29;20458;-40
2023/01/04 04:10:55;;;;;;;54.13;17.75;;;;;;;;;;4941503;28;20469;-38
2023/01/04 04:13:22;;;;;;;91.13;18.60;;;;;;;;;;4957045;28;20039;-39
2023/01/04 04:15:51;;;;;;;63.88;18.10;;;;;;;;;;4956162;28;20054;-39
2023/01/04 04:18:17;;;;;;;59.40;17.10;;;;;;;;;;4956902;28;20039;-39
2023/01/04 04:20:44;;;;;;;71.88;16.88;;;;;;;;;;4955358;28;20461;-41
2023/01/04 04:23:10;;;;;;;58.58;16.75;;;;;;;;;;4960345;28;20427;-40
2023/01/04 04:25:37;;;;;;;67.55;17.38;;;;;;;;;;4960348;28;20125;-41
2023/01/04 04:28:04;;;;;;;95.13;18.42;;;;;;;;;;4955621;28;20070;-39
2023/01/04 04:30:31;;;;;;;80.38;17.20;;;;;;;;;;4959327;28;20087;-39
2023/01/04 04:32:58;;;;;;;79.15;18.73;;;;;;;;;;4956207;28;20114;-39
2023/01/04 04:35:24;;;;;;;87.28;19.75;;;;;;;;;;4958490;28;20512;-39
2023/01/04 04:37:50;;;;;;;58.65;17.48;;;;;;;;;;4957318;28;20547;-40
2023/01/04 04:41:37;;;;;;;75.38;19.25;;;;;;;;;;4957086;28;20094;-39
2023/01/04 04:43:06;;;;;;;64.70;16.80;;;;;;;;;;4954628;28;20106;-39
2023/01/04 04:45:32;;;;;;;83.32;18.25;;;;;;;;;;4959175;28;20085;-39
2023/01/04 04:47:59;;;;;;;77.93;18.65;;;;;;;;;;4954484;28;20047;-39
2023/01/04 04:50:25;;;;;;;82.10;18.38;;;;;;;;;;4960912;28;20031;-39
2023/01/04 04:52:52;;;;;;;64.47;18.25;;;;;;;;;;4958621;28;20405;-39
2023/01/04 04:55:21;;;;;;;76.75;19.20;;;;;;;;;;4956611;28;20038;-39
2023/01/04 04:57:48;;;;;;;62.90;16.70;;;;;;;;;;4955907;28;20047;-39
2023/01/04 05:00:15;;;;;;;61.67;16.42;;;;;;;;;;4953672;28;20126;-39
2023/01/04 05:02:41;;;;;;;75.93;17.55;;;;;;;;;;4958056;28;20043;-39
2023/01/04 05:05:08;;;;;;;69.80;18.95;;;;;;;;;;4957789;28;20051;-40
2023/01/04 05:07:34;;;;;;;73.95;21.08;;;;;;;;;;4957766;28;20031;-39
2023/01/04 05:10:01;;;;;;;77.97;18.90;;;;;;;;;;4954397;28;20405;-40
2023/01/04 05:15:18;;;;;;;88.82;23.10;;;;;;;;;;4957008;28;20126;-39
2023/01/04 05:17:44;;;;;;;68.35;21.20;;;;;;;;;;4959273;28;20489;-40
2023/01/04 05:20:11;;;;;;;72.50;20.85;;;;;;;;;;4953641;28;20106;-39
2023/01/04 05:22:37;;;;;;;89.40;22.95;;;;;;;;;;4954362;28;20039;-39
2023/01/04 05:25:04;;;;;;;104.20;24.33;;;;;;;;;;4954617;28;20054;-39
2023/01/04 05:27:30;;;;;;;66.45;19.35;;;;;;;;;;4959459;28;20058;-40
2023/01/04 05:32:42;;;;;;;69.25;19.00;;;;;;;;;;4956706;28;20043;-40
2023/01/04 05:35:09;;;;;;;78.32;21.73;;;;;;;;;;4957213;28;20057;-39
2023/01/04 05:37:35;;;;;;;91.55;21.80;;;;;;;;;;4957349;28;20053;-40
2023/01/04 05:40:01;;;;;;;76.20;21.85;;;;;;;;;;4951616;28;20058;-39
2023/01/04 05:42:28;;;;;;;107.30;26.88;;;;;;;;;;4954331;28;20047;-39
2023/01/04 05:44:55;;;;;;;96.00;23.50;;;;;;;;;;4954861;28;20053;-40
2023/01/04 05:47:23;;;;;;;77.07;23.17;;;;;;;;;;4957496;28;20050;-40
2023/01/04 05:49:49;;;;;;;87.72;24.20;;;;;;;;;;4960376;28;20050;-38
2023/01/04 05:52:16;;;;;;;101.07;23.98;;;;;;;;;;4959364;28;20054;-40
2023/01/04 05:54:42;;;;;;;70.43;22.02;;;;;;;;;;4959549;28;20035;-39
2023/01/04 05:57:09;;;;;;;101.47;24.83;;;;;;;;;;4956957;28;20383;-39
2023/01/04 05:59:36;;;;;;;106.25;29.05;;;;;;;;;;4963080;28;20130;-39
2023/01/04 06:02:12;;;;;;;89.70;27.58;;;;;;;;;;4961192;28;20051;-40
2023/01/04 06:04:39;;;;;;;108.57;32.22;;;;;;;;;;4964333;28;20047;-39
2023/01/04 06:07:05;;;;;;;113.60;31.70;;;;;;;;;;4958640;28;20709;-39
2023/01/04 06:09:32;;;;;;;128.88;29.17;;;;;;;;;;4958256;28;20051;-41
2023/01/04 06:11:58;;;;;;;92.00;26.58;;;;;;;;;;4959028;28;20039;-39
2023/01/04 06:14:25;;;;;;;111.18;27.52;;;;;;;;;;4959937;28;20126;-40
2023/01/04 06:16:51;;;;;;;112.60;28.98;;;;;;;;;;4960343;28;20039;-38
2023/01/04 06:19:18;;;;;;;110.00;29.35;;;;;;;;;;4964502;28;20547;-39
2023/01/04 06:21:44;;;;;;;110.45;28.02;;;;;;;;;;4957803;28;20110;-40
2023/01/04 06:24:11;;;;;;;85.75;29.90;;;;;;;;;;4956874;28;20061;-39
2023/01/04 06:26:37;;;;;;;111.50;31.63;;;;;;;;;;4958981;28;20520;-39
2023/01/04 06:29:04;;;;;;;134.10;35.78;;;;;;;;;;4957075;28;20166;-40
2023/01/04 06:31:32;;;;;;;128.85;33.35;;;;;;;;;;4962068;28;20039;-39
2023/01/04 06:33:59;;;;;;;115.82;33.92;;;;;;;;;;4957379;28;20429;-40
2023/01/04 06:36:26;;;;;;;128.63;34.60;;;;;;;;;;4956175;28;20066;-40
2023/01/04 06:38:52;;;;;;;112.28;30.92;;;;;;;;;;4956566;28;20118;-40
2023/01/04 06:41:19;;;;;;;72.80;23.95;;;;;;;;;;4958569;28;20046;-40
2023/01/04 06:43:45;;;;;;;95.68;22.85;;;;;;;;;;4960535;28;20508;-39
2023/01/04 06:46:11;;;;;;;84.22;22.42;;;;;;;;;;4958681;28;20538;-40
2023/01/04 06:48:38;;;;;;;88.32;22.98;;;;;;;;;;4957275;28;20054;-41
2023/01/04 06:51:05;;;;;;;88.85;24.00;;;;;;;;;;4955932;28;20086;-39
2023/01/04 06:53:31;;;;;;;98.68;25.13;;;;;;;;;;4960132;28;20047;-40
2023/01/04 06:55:57;;;;;;;78.90;25.27;;;;;;;;;;4959913;28;20047;-39
2023/01/04 06:58:24;;;;;;;94.32;24.48;;;;;;;;;;4958146;28;20038;-39
2023/01/04 07:00:51;;;;;;;80.35;22.92;;;;;;;;;;4956396;28;20448;-40
2023/01/04 07:03:17;;;;;;;84.05;22.95;;;;;;;;;;4956412;28;20548;-39
2023/01/04 07:05:44;;;;;;;71.55;21.65;;;;;;;;;;4958203;28;20118;-39
2023/01/04 07:08:11;;;;;;;75.18;23.67;;;;;;;;;;4959171;28;20035;-39
2023/01/04 07:10:38;;;;;;;74.53;21.50;;;;;;;;;;4959539;28;20065;-41
2023/01/04 07:13:05;;;;;;;118.70;26.95;;;;;;;;;;4956812;28;20501;-39
2023/01/04 07:15:32;;;;;;;108.20;31.60;;;;;;;;;;4956114;28;20054;-40
2023/01/04 07:18:06;;;;;;;93.82;27.20;;;;;;;;;;4962534;28;20043;-39
2023/01/04 07:20:32;;;;;;;127.90;31.65;;;;;;;;;;4956829;28;20071;-39
2023/01/04 07:22:59;;;;;;;100.38;31.20;;;;;;;;;;4959492;28;20039;-40
2023/01/04 07:25:25;;;;;;;143.32;38.97;;;;;;;;;;4961421;28;20101;-40
2023/01/04 07:27:53;;;;;;;164.02;42.70;;;;;;;;;;4956375;28;20413;-41
2023/01/04 07:30:20;;;;;;;137.65;39.22;;;;;;;;;;4955590;28;20442;-40
2023/01/04 07:32:47;;;;;;;105.05;34.20;;;;;;;;;;4956050;28;20119;-39
2023/01/04 07:35:13;;;;;;;139.38;35.17;;;;;;;;;;4958884;28;20114;-39
2023/01/04 07:37:41;;;;;;;95.75;28.30;;;;;;;;;;4957993;28;20043;-40
2023/01/04 07:40:08;;;;;;;97.35;27.20;;;;;;;;;;4956151;28;20102;-40
2023/01/04 07:42:35;;;;;;;96.88;25.73;;;;;;;;;;4958141;28;20058;-39
2023/01/04 07:45:02;;;;;;;79.78;26.00;;;;;;;;;;4959394;28;20114;-41
2023/01/04 07:47:28;;;;;;;74.03;22.73;;;;;;;;;;4955350;28;20039;-40
2023/01/04 07:49:55;;;;;;;108.97;26.25;;;;;;;;;;4959313;28;20046;-41
2023/01/04 07:52:21;;;;;;;77.97;22.02;;;;;;;;;;4957690;28;20386;-40
2023/01/04 07:54:48;;;;;;;62.25;21.05;;;;;;;;;;4956050;28;20493;-39
2023/01/04 07:57:14;;;;;;;89.95;23.45;;;;;;;;;;4955168;28;20079;-39
2023/01/04 07:59:41;;;;;;;79.78;22.50;;;;;;;;;;4956952;28;20419;-39
2023/01/04 08:02:09;;;;;;;72.97;21.85;;;;;;;;;;4958343;28;20122;-39
2023/01/04 08:04:36;;;;;;;91.43;22.98;;;;;;;;;;4958504;28;20038;-39
2023/01/04 08:07:02;;;;;;;88.00;23.80;;;;;;;;;;4955578;28;20404;-40
2023/01/04 08:09:29;;;;;;;88.18;23.45;;;;;;;;;;4955027;28;20047;-42
2023/01/04 08:11:55;;;;;;;63.85;22.17;;;;;;;;;;4955970;28;20042;-40
2023/01/04 08:14:22;;;;;;;79.03;22.92;;;;;;;;;;4958256;28;20043;-38
2023/01/04 08:16:48;;;;;;;63.97;21.75;;;;;;;;;;4958766;28;20055;-40
2023/01/04 08:19:17;;;;;;;88.10;23.42;;;;;;;;;;4956507;28;20124;-40
2023/01/04 08:21:44;;;;;;;67.88;21.92;;;;;;;;;;4955861;28;20058;-39
2023/01/04 08:24:12;;;;;;;64.05;22.92;;;;;;;;;;4958223;28;20126;-39
2023/01/04 08:26:38;;;;;;;82.40;23.58;;;;;;;;;;4959453;28;20077;-38
2023/01/04 08:29:05;;;;;;;93.18;23.90;;;;;;;;;;4966708;28;21648;-39
2023/01/04 08:31:32;;;;;;;69.93;22.48;;;;;;;;;;4968659;28;20049;-39
2023/01/04 08:34:00;;;;;;;62.78;22.27;;;;;;;;;;4966058;28;20070;-38
2023/01/04 08:36:28;;;;;;;85.97;23.10;;;;;;;;;;4963587;28;20446;-39
2023/01/04 08:38:55;;;;;;;74.13;22.40;;;;;;;;;;4953920;28;20039;-39
2023/01/04 08:41:27;;;;;;;118.60;25.50;;;;;;;;;;4956775;28;20051;-39
2023/01/04 08:44:13;;;;;;;80.47;24.08;;;;;;;;;;4958907;28;20045;-40
2023/01/04 08:46:40;;;;;;;79.05;23.13;;;;;;;;;;4956017;28;20061;-39
2023/01/04 08:49:06;;;;;;;72.53;23.98;;;;;;;;;;4955293;28;20051;-41
2023/01/04 08:51:33;;;;;;;65.30;23.13;;;;;;;;;;4957403;28;20133;-39
2023/01/04 08:53:59;;;;;;;93.35;25.35;;;;;;;;;;4957227;28;20051;-39
2023/01/04 08:56:26;;;;;;;89.65;25.48;;;;;;;;;;4957140;28;20039;-43
2023/01/04 08:58:52;;;;;;;75.75;22.30;;;;;;;;;;4958790;28;20050;-40
2023/01/04 09:01:19;;;;;;;101.20;27.98;;;;;;;;;;4964111;28;20065;-43
2023/01/04 09:03:45;;;;;;;108.43;27.25;;;;;;;;;;4968077;28;20054;-42
2023/01/04 09:06:13;;;;;;;74.65;25.67;;;;;;;;;;4957719;28;20044;-40
2023/01/04 09:08:40;;;;;;;87.10;27.20;;;;;;;;;;4956899;28;20035;-42
2023/01/04 09:11:08;;;;;;;74.72;25.30;;;;;;;;;;4962857;28;20494;-45
2023/01/04 09:13:35;;;;;;;102.78;28.60;;;;;;;;;;4955300;28;20527;-47
2023/01/04 09:16:02;;;;;;;76.05;26.27;;;;;;;;;;4951066;28;20051;-43
2023/01/04 09:18:29;;;;;;;102.82;29.38;;;;;;;;;;4954208;28;20051;-42
2023/01/04 09:21:00;;;;;;;89.45;28.30;;;;;;;;;;4953669;28;20394;-42
2023/01/04 09:23:27;;;;;;;122.03;31.33;;;;;;;;;;4959551;28;20842;-41
2023/01/04 09:25:54;;;;;;;88.97;28.42;;;;;;;;;;4954653;28;20054;-43
2023/01/04 09:28:20;;;;;;;102.72;27.48;;;;;;;;;;4954378;28;20035;-42
2023/01/04 09:30:47;;;;;;;97.20;28.17;;;;;;;;;;4955249;28;20055;-42
2023/01/04 09:33:13;;;;;;;88.60;28.30;;;;;;;;;;4953517;28;20545;-42
2023/01/04 09:35:40;;;;;;;83.35;28.08;;;;;;;;;;4954462;28;20122;-43
2023/01/04 09:38:06;;;;;;;89.65;27.63;;;;;;;;;;4956215;28;20059;-41
2023/01/04 09:40:36;;;;;;;89.78;25.25;;;;;;;;;;4956200;28;20494;-42
2023/01/04 09:43:03;;;;;;;70.78;24.67;;;;;;;;;;4954443;28;20043;-41
2023/01/04 09:45:46;;;;;;;;;;;;;;;;;;4955329;28;20150;-42
2023/01/04 09:48:15;;;;;;;73.13;24.85;;;;;;;;;;4954057;28;19933;-43
2023/01/04 09:50:57;;;;;;;82.80;25.52;;;;;;;;;;4955936;28;20043;-41
2023/01/04 09:53:27;;;;;;;94.65;26.45;;;;;;;;;;4956588;28;20043;-44
2023/01/04 09:55:56;;;;;;;81.53;26.55;;;;;;;;;;4957738;28;20055;-42
2023/01/04 09:58:33;;;;;;;94.82;27.23;;;;;;;;;;4954973;28;20071;-42
2023/01/04 10:01:05;;;;;;;62.65;25.63;;;;;;;;;;4958158;28;20060;-42
2023/01/04 10:03:32;;;;;;;97.93;28.48;;;;;;;;;;4953685;28;20043;-42
2023/01/04 10:06:00;;;;;;;86.20;25.50;;;;;;;;;;4955038;28;20509;-47
2023/01/04 10:08:26;;;;;;;95.13;27.33;;;;;;;;;;4956643;28;20074;-42
2023/01/04 10:11:08;;;;;;;87.25;25.48;;;;;;;;;;4957211;28;20046;-41
2023/01/04 10:13:40;;;;;;;70.35;25.15;;;;;;;;;;4960161;28;20130;-43
2023/01/04 10:16:08;;;;;;;87.15;26.10;;;;;;;;;;4954079;28;20050;-46
2023/01/04 10:18:43;;;;;;;71.70;25.23;;;;;;;;;;4956021;28;20131;-41
2023/01/04 10:21:42;;;;;;;110.53;27.38;;;;;;;;;;4954616;28;20513;-41
2023/01/04 10:24:18;;;;;;;89.10;25.92;;;;;;;;;;4952536;28;20051;-41
2023/01/04 10:26:46;;;;;;;99.25;27.13;;;;;;;;;;4952408;28;20071;-41
2023/01/04 10:29:12;;;;;;;73.70;24.38;;;;;;;;;;4957047;28;20049;-42
2023/01/04 10:31:42;;;;;;;69.18;23.45;;;;;;;;;;4958155;28;20054;-44
2023/01/04 10:34:27;;;;;;;98.65;25.65;;;;;;;;;;4954975;28;20716;-41
2023/01/04 10:37:09;;;;;;;73.15;23.67;;;;;;;;;;4959105;28;20047;-42
2023/01/04 10:39:36;;;;;;;61.55;22.20;;;;;;;;;;4958800;28;20442;-47
2023/01/04 10:42:09;;;;;;;89.95;25.63;;;;;;;;;;4955610;28;20047;-44
2023/01/04 10:44:41;;;;;;;96.28;25.10;;;;;;;;;;4956828;28;20453;-45
2023/01/04 10:47:26;;;;;;;93.07;23.88;;;;;;;;;;4958055;28;20090;-43
2023/01/04 10:49:57;;;;;;;102.63;23.52;;;;;;;;;;4961659;28;20038;-42
2023/01/04 10:52:29;;;;;;;75.85;22.73;;;;;;;;;;4957955;28;20386;-41
2023/01/04 10:55:02;;;;;;;61.60;20.80;;;;;;;;;;4956461;28;20047;-41
2023/01/04 10:57:49;;;;;;;82.32;22.67;;;;;;;;;;4957843;28;20039;-46
2023/01/04 11:00:18;;;;;;;78.18;25.05;;;;;;;;;;4950786;28;20505;-41
2023/01/04 11:02:45;;;;;;;73.40;24.98;;;;;;;;;;4959367;28;20414;-43
2023/01/04 11:05:19;;;;;;;61.85;20.42;;;;;;;;;;4958807;28;20039;-43
2023/01/04 11:07:46;;;;;;;68.20;20.15;;;;;;;;;;4963092;28;20114;-42
2023/01/04 11:10:14;;;;;;;71.57;20.25;;;;;;;;;;4957426;28;20043;-43
2023/01/04 11:12:40;;;;;;;66.88;19.45;;;;;;;;;;4962405;28;20457;-43
2023/01/04 11:15:07;;;;;;;67.05;19.42;;;;;;;;;;4959985;28;20058;-41
2023/01/04 11:17:34;;;;;;;69.45;19.13;;;;;;;;;;4959543;28;20054;-41
2023/01/04 11:20:00;;;;;;;63.55;19.48;;;;;;;;;;4964037;28;20042;-43
2023/01/04 11:22:36;;;;;;;82.75;21.92;;;;;;;;;;4958055;28;20038;-42
2023/01/04 11:25:06;;;;;;;83.25;25.38;;;;;;;;;;4958554;28;20062;-42
2023/01/04 11:27:56;;;;;;;57.75;17.58;;;;;;;;;;4958314;28;20159;-42
2023/01/04 11:30:23;;;;;;;71.97;18.60;;;;;;;;;;4955689;28;20520;-41
2023/01/04 11:32:56;;;;;;;73.00;20.63;;;;;;;;;;4968900;28;20050;-43
2023/01/04 11:35:40;;;;;;;53.22;18.10;;;;;;;;;;4959834;28;20493;-43
2023/01/04 11:38:16;;;;;;;59.72;19.15;;;;;;;;;;4958792;28;20055;-44
2023/01/04 11:40:58;;;;;;;69.18;21.05;;;;;;;;;;4958802;28;20042;-42
2023/01/04 11:43:25;;;;;;;100.22;27.23;;;;;;;;;;4961873;28;20055;-41
2023/01/04 11:45:54;;;;;;;64.90;19.38;;;;;;;;;;4956043;28;20035;-45
2023/01/04 11:48:30;;;;;;;60.70;18.20;;;;;;;;;;4957671;28;20051;-42
2023/01/04 11:50:56;;;;;;;76.30;17.88;;;;;;;;;;4955780;28;20042;-41
2023/01/04 11:53:25;;;;;;;66.47;17.42;;;;;;;;;;4957767;28;20043;-47
2023/01/04 11:56:09;;;;;;;67.78;19.92;;;;;;;;;;4958578;28;20496;-42
2023/01/04 11:58:36;;;;;;;63.13;17.05;;;;;;;;;;4977923;28;20039;-44
2023/01/04 12:01:02;;;;;;;72.20;18.10;;;;;;;;;;4956705;28;20051;-41
2023/01/04 12:03:38;;;;;;;87.60;18.02;;;;;;;;;;4955006;28;20043;-42
2023/01/04 12:06:12;;;;;;;65.82;18.45;;;;;;;;;;4956015;28;20465;-42
2023/01/04 12:08:40;;;;;;;73.80;17.67;;;;;;;;;;4958049;28;20066;-42
2023/01/04 12:11:15;;;;;;;59.63;15.98;;;;;;;;;;4959556;28;20049;-42
2023/01/04 12:13:41;;;;;;;50.03;15.75;;;;;;;;;;4958117;28;20049;-42
2023/01/04 12:16:13;;;;;;;119.10;22.17;;;;;;;;;;4954870;28;20035;-42
2023/01/04 12:18:41;;;;;;;70.30;17.25;;;;;;;;;;4958978;28;20039;-42
2023/01/04 12:21:15;;;;;;;77.18;18.10;;;;;;;;;;4956557;28;20545;-41
2023/01/04 12:23:41;;;;;;;55.60;17.52;;;;;;;;;;4956713;28;20058;-43
2023/01/04 12:26:09;;;;;;;59.67;18.25;;;;;;;;;;4958095;28;20035;-42
2023/01/04 12:28:43;;;;;;;109.72;20.15;;;;;;;;;;4962057;28;20500;-42
2023/01/04 12:31:19;;;;;;;65.18;17.02;;;;;;;;;;4957128;28;20051;-44
2023/01/04 12:33:48;;;;;;;60.15;17.02;;;;;;;;;;4957356;28;20088;-42
2023/01/04 12:36:34;;;;;;;57.08;17.45;;;;;;;;;;4955015;28;20043;-41
2023/01/04 12:39:02;;;;;;;66.88;16.83;;;;;;;;;;4954944;28;20074;-41
2023/01/04 12:41:34;;;;;;;61.50;17.27;;;;;;;;;;4957496;28;20043;-41
2023/01/04 12:44:02;;;;;;;58.63;15.73;;;;;;;;;;4958228;28;20506;-42
2023/01/04 12:49:32;;;;;;;59.88;15.55;;;;;;;;;;4958418;28;20043;-41
2023/01/04 12:52:08;;;;;;;72.43;17.77;;;;;;;;;;4955868;28;20101;-41
2023/01/04 12:54:56;;;;;;;96.82;19.63;;;;;;;;;;4955249;28;20039;-41
2023/01/04 12:57:28;;;;;;;64.55;15.63;;;;;;;;;;4955820;28;20070;-42
2023/01/04 13:00:11;;;;;;;90.60;18.73;;;;;;;;;;4954020;28;20043;-43
2023/01/04 13:02:42;;;;;;;60.92;16.10;;;;;;;;;;4956420;28;20075;-41
2023/01/04 13:05:16;;;;;;;92.18;18.65;;;;;;;;;;4957536;28;20043;-42
2023/01/04 13:08:07;;;;;;;63.83;17.45;;;;;;;;;;4961820;28;20055;-43
2023/01/04 13:10:40;;;;;;;89.93;18.17;;;;;;;;;;4953088;28;20054;-43
2023/01/04 13:13:22;;;;;;;86.53;19.48;;;;;;;;;;4955296;28;20109;-42
2023/01/04 13:16:12;;;;;;;77.38;20.25;;;;;;;;;;4955556;28;20098;-44
2023/01/04 13:18:41;;;;;;;82.65;20.00;;;;;;;;;;4953680;28;20056;-41
2023/01/04 13:21:15;;;;;;;78.03;20.15;;;;;;;;;;4954457;28;20055;-41
2023/01/04 13:23:47;;;;;;;64.70;18.48;;;;;;;;;;4956977;28;20114;-41
2023/01/04 13:26:33;;;;;;;72.57;18.27;;;;;;;;;;4957795;28;20050;-42
2023/01/04 13:29:19;;;;;;;86.47;19.00;;;;;;;;;;4957792;28;20071;-42
2023/01/04 13:31:45;;;;;;;70.25;17.50;;;;;;;;;;4962856;28;20125;-42
2023/01/04 13:34:15;;;;;;;59.22;16.67;;;;;;;;;;4954963;28;20150;-42
2023/01/04 13:36:42;;;;;;;82.05;19.00;;;;;;;;;;4957654;28;20047;-43
2023/01/04 13:39:10;;;;;;;71.50;18.67;;;;;;;;;;4955614;28;20073;-43
2023/01/04 13:41:36;;;;;;;52.20;18.13;;;;;;;;;;4955666;28;20118;-41
2023/01/04 13:44:09;;;;;;;57.30;18.70;;;;;;;;;;4957760;28;20046;-42
2023/01/04 13:46:36;;;;;;;67.78;18.30;;;;;;;;;;4961066;28;20039;-42
2023/01/04 13:49:02;;;;;;;89.65;19.92;;;;;;;;;;4954299;28;20054;-42
2023/01/04 13:51:33;;;;;;;59.17;16.98;;;;;;;;;;4956062;28;20046;-42
2023/01/04 13:54:17;;;;;;;53.40;16.00;;;;;;;;;;4956642;28;20126;-42
2023/01/04 13:56:44;;;;;;;60.33;15.82;;;;;;;;;;4961781;28;20416;-42
2023/01/04 13:59:30;;;;;;;89.22;19.10;;;;;;;;;;4960635;28;20046;-42
2023/01/04 14:01:57;;;;;;;67.20;17.55;;;;;;;;;;4958616;28;20058;-43
2023/01/04 14:04:25;;;;;;;107.38;18.73;;;;;;;;;;4956761;28;20058;-45
2023/01/04 14:06:52;;;;;;;56.40;15.23;;;;;;;;;;4958867;28;20516;-44
2023/01/04 14:09:31;;;;;;;68.47;15.65;;;;;;;;;;4955304;28;20047;-44
2023/01/04 14:12:02;;;;;;;73.43;16.08;;;;;;;;;;4958928;28;20094;-44
2023/01/04 14:14:54;;;;;;;58.63;15.50;;;;;;;;;;4961154;28;20050;-47
2023/01/04 14:17:34;;;;;;;56.58;14.98;;;;;;;;;;4962957;28;20078;-42
2023/01/04 14:20:02;;;;;;;69.15;16.92;;;;;;;;;;4960664;28;20043;-43
2023/01/04 14:22:33;;;;;;;79.07;16.98;;;;;;;;;;4958242;28;20050;-42
2023/01/04 14:25:19;;;;;;;50.47;16.10;;;;;;;;;;4957866;28;20055;-41
2023/01/04 14:27:46;;;;;;;62.72;17.45;;;;;;;;;;4961075;28;20047;-42
2023/01/04 14:30:19;;;;;;;56.70;14.40;;;;;;;;;;4959076;28;20097;-43
2023/01/04 14:33:07;;;;;;;71.32;17.10;;;;;;;;;;4963860;28;20490;-42
2023/01/04 14:35:34;;;;;;;49.55;14.50;;;;;;;;;;4963672;28;20105;-40
2023/01/04 14:38:11;;;;;;;72.82;17.38;;;;;;;;;;4964183;28;20497;-41
2023/01/04 14:40:39;;;;;;;68.57;16.73;;;;;;;;;;4963788;28;20050;-41
2023/01/04 14:43:25;;;;;;;88.18;17.67;;;;;;;;;;4960336;28;20133;-45
2023/01/04 14:45:51;;;;;;;77.47;16.48;;;;;;;;;;4956037;28;20047;-42
2023/01/04 14:48:17;;;;;;;62.42;16.25;;;;;;;;;;4957017;28;20524;-44
2023/01/04 14:50:49;;;;;;;59.03;15.65;;;;;;;;;;4960622;28;20043;-43
2023/01/04 14:53:18;;;;;;;62.28;16.35;;;;;;;;;;4958315;28;20465;-45
2023/01/04 14:55:44;;;;;;;64.55;15.82;;;;;;;;;;4962462;28;20047;-43
2023/01/04 14:58:10;;;;;;;68.75;16.92;;;;;;;;;;4956905;28;20042;-43
2023/01/04 15:00:37;;;;;;;67.68;15.93;;;;;;;;;;4956211;28;20410;-43
2023/01/04 15:03:03;;;;;;;56.58;15.98;;;;;;;;;;4957297;28;20518;-44
2023/01/04 15:05:30;;;;;;;71.55;16.92;;;;;;;;;;4959472;28;20085;-42
2023/01/04 15:08:03;;;;;;;80.53;16.25;;;;;;;;;;4957591;28;20138;-44
2023/01/04 15:10:29;;;;;;;79.03;17.00;;;;;;;;;;4958141;28;20055;-43
2023/01/04 15:12:59;;;;;;;77.55;18.52;;;;;;;;;;4960624;28;20035;-42
2023/01/04 15:15:25;;;;;;;53.30;16.90;;;;;;;;;;4962646;28;20520;-42
2023/01/04 15:17:52;;;;;;;54.35;15.55;;;;;;;;;;4956356;28;20409;-44
2023/01/04 15:20:18;;;;;;;63.33;15.57;;;;;;;;;;4959320;28;20099;-42
2023/01/04 15:22:45;;;;;;;54.38;16.55;;;;;;;;;;4962132;28;20708;-43
2023/01/04 15:25:11;;;;;;;77.75;20.52;;;;;;;;;;4955866;28;20042;-42
2023/01/04 15:27:38;;;;;;;54.97;16.30;;;;;;;;;;4956647;28;20110;-43